sensor_id;sensor_type;location;lat;lon;timestamp;P1;durP1;ratioP1;P2;durP2;ratioP2
38465;SDS011;24244;51.950;5.902;2024-02-21T00:01:31;16.23;;;7.85;;
38465;SDS011;24244;51.950;5.902;2024-02-21T00:03:58;19.65;;;8.25;;
38465;SDS011;24244;51.950;5.902;2024-02-21T00:06:25;15.93;;;7.38;;
38465;SDS011;24244;51.950;5.902;2024-02-21T00:08:54;19.73;;;9.05;;
38465;SDS011;24244;51.950;5.902;2024-02-21T00:11:20;18.60;;;8.48;;
38465;SDS011;24244;51.950;5.902;2024-02-21T00:13:47;19.45;;;7.95;;
38465;SDS011;24244;51.950;5.902;2024-02-21T00:16:14;19.23;;;8.15;;
38465;SDS011;24244;51.950;5.902;2024-02-21T00:18:42;21.65;;;8.13;;
38465;SDS011;24244;51.950;5.902;2024-02-21T00:21:09;20.00;;;8.32;;
38465;SDS011;24244;51.950;5.902;2024-02-21T00:23:41;18.95;;;8.65;;
38465;SDS011;24244;51.950;5.902;2024-02-21T00:26:09;19.65;;;8.95;;
38465;SDS011;24244;51.950;5.902;2024-02-21T00:28:36;23.15;;;8.93;;
38465;SDS011;24244;51.950;5.902;2024-02-21T00:31:03;16.80;;;8.15;;
38465;SDS011;24244;51.950;5.902;2024-02-21T00:33:30;19.90;;;7.55;;
38465;SDS011;24244;51.950;5.902;2024-02-21T00:35:57;21.77;;;8.90;;
38465;SDS011;24244;51.950;5.902;2024-02-21T00:38:23;19.42;;;8.85;;
38465;SDS011;24244;51.950;5.902;2024-02-21T00:40:50;21.30;;;8.48;;
38465;SDS011;24244;51.950;5.902;2024-02-21T00:43:18;15.55;;;8.02;;
38465;SDS011;24244;51.950;5.902;2024-02-21T00:45:45;15.73;;;8.60;;
38465;SDS011;24244;51.950;5.902;2024-02-21T00:48:12;17.90;;;9.60;;
38465;SDS011;24244;51.950;5.902;2024-02-21T00:50:39;16.40;;;7.72;;
38465;SDS011;24244;51.950;5.902;2024-02-21T00:53:06;17.40;;;7.50;;
38465;SDS011;24244;51.950;5.902;2024-02-21T00:55:33;19.27;;;8.23;;
38465;SDS011;24244;51.950;5.902;2024-02-21T00:58:00;15.90;;;6.97;;
38465;SDS011;24244;51.950;5.902;2024-02-21T01:00:28;17.75;;;8.00;;
38465;SDS011;24244;51.950;5.902;2024-02-21T01:02:55;14.63;;;7.75;;
38465;SDS011;24244;51.950;5.902;2024-02-21T01:05:22;17.10;;;8.35;;
38465;SDS011;24244;51.950;5.902;2024-02-21T01:07:49;14.15;;;7.45;;
38465;SDS011;24244;51.950;5.902;2024-02-21T01:10:16;15.68;;;7.93;;
38465;SDS011;24244;51.950;5.902;2024-02-21T01:12:43;18.40;;;8.55;;
38465;SDS011;24244;51.950;5.902;2024-02-21T01:15:10;13.93;;;8.13;;
38465;SDS011;24244;51.950;5.902;2024-02-21T01:17:39;18.48;;;7.85;;
38465;SDS011;24244;51.950;5.902;2024-02-21T01:20:07;17.88;;;8.13;;
38465;SDS011;24244;51.950;5.902;2024-02-21T01:22:34;18.90;;;8.10;;
38465;SDS011;24244;51.950;5.902;2024-02-21T01:25:01;18.90;;;8.80;;
38465;SDS011;24244;51.950;5.902;2024-02-21T01:27:28;17.63;;;7.10;;
38465;SDS011;24244;51.950;5.902;2024-02-21T01:29:55;18.23;;;8.60;;
38465;SDS011;24244;51.950;5.902;2024-02-21T01:32:22;17.13;;;8.25;;
38465;SDS011;24244;51.950;5.902;2024-02-21T01:34:52;14.57;;;6.35;;
38465;SDS011;24244;51.950;5.902;2024-02-21T01:37:19;20.52;;;7.47;;
38465;SDS011;24244;51.950;5.902;2024-02-21T01:39:46;17.52;;;8.00;;
38465;SDS011;24244;51.950;5.902;2024-02-21T01:42:12;15.85;;;7.70;;
38465;SDS011;24244;51.950;5.902;2024-02-21T01:44:39;20.80;;;8.52;;
38465;SDS011;24244;51.950;5.902;2024-02-21T01:47:06;17.83;;;7.70;;
38465;SDS011;24244;51.950;5.902;2024-02-21T01:49:34;13.45;;;6.70;;
38465;SDS011;24244;51.950;5.902;2024-02-21T01:52:02;19.02;;;7.95;;
38465;SDS011;24244;51.950;5.902;2024-02-21T01:54:29;14.55;;;7.60;;
38465;SDS011;24244;51.950;5.902;2024-02-21T01:56:57;14.88;;;7.85;;
38465;SDS011;24244;51.950;5.902;2024-02-21T01:59:24;17.80;;;7.90;;
38465;SDS011;24244;51.950;5.902;2024-02-21T02:01:51;17.70;;;7.18;;
38465;SDS011;24244;51.950;5.902;2024-02-21T02:04:20;13.80;;;6.47;;
38465;SDS011;24244;51.950;5.902;2024-02-21T02:06:47;12.65;;;6.90;;
38465;SDS011;24244;51.950;5.902;2024-02-21T02:09:16;16.92;;;7.75;;
38465;SDS011;24244;51.950;5.902;2024-02-21T02:11:43;12.82;;;7.32;;
38465;SDS011;24244;51.950;5.902;2024-02-21T02:14:10;17.77;;;6.88;;
38465;SDS011;24244;51.950;5.902;2024-02-21T02:16:36;17.88;;;8.10;;
38465;SDS011;24244;51.950;5.902;2024-02-21T02:19:03;18.05;;;7.22;;
38465;SDS011;24244;51.950;5.902;2024-02-21T02:21:32;16.75;;;7.93;;
38465;SDS011;24244;51.950;5.902;2024-02-21T02:24:06;16.67;;;7.18;;
38465;SDS011;24244;51.950;5.902;2024-02-21T02:26:34;15.70;;;6.43;;
38465;SDS011;24244;51.950;5.902;2024-02-21T02:29:01;18.17;;;7.60;;
38465;SDS011;24244;51.950;5.902;2024-02-21T02:31:28;17.05;;;7.40;;
38465;SDS011;24244;51.950;5.902;2024-02-21T02:33:55;18.10;;;7.10;;
38465;SDS011;24244;51.950;5.902;2024-02-21T02:36:22;17.85;;;6.95;;
38465;SDS011;24244;51.950;5.902;2024-02-21T02:38:48;21.77;;;8.15;;
38465;SDS011;24244;51.950;5.902;2024-02-21T02:41:16;16.77;;;7.57;;
38465;SDS011;24244;51.950;5.902;2024-02-21T02:43:43;16.95;;;7.70;;
38465;SDS011;24244;51.950;5.902;2024-02-21T02:46:10;17.70;;;7.03;;
38465;SDS011;24244;51.950;5.902;2024-02-21T02:48:37;16.95;;;7.13;;
38465;SDS011;24244;51.950;5.902;2024-02-21T02:51:05;18.17;;;7.95;;
38465;SDS011;24244;51.950;5.902;2024-02-21T02:53:31;15.35;;;7.75;;
38465;SDS011;24244;51.950;5.902;2024-02-21T02:55:58;17.00;;;6.55;;
38465;SDS011;24244;51.950;5.902;2024-02-21T02:58:26;16.17;;;6.60;;
38465;SDS011;24244;51.950;5.902;2024-02-21T03:00:53;17.20;;;6.63;;
38465;SDS011;24244;51.950;5.902;2024-02-21T03:03:20;12.98;;;7.05;;
38465;SDS011;24244;51.950;5.902;2024-02-21T03:05:47;17.58;;;8.05;;
38465;SDS011;24244;51.950;5.902;2024-02-21T03:08:14;16.30;;;8.05;;
38465;SDS011;24244;51.950;5.902;2024-02-21T03:10:41;19.10;;;8.23;;
38465;SDS011;24244;51.950;5.902;2024-02-21T03:13:08;12.60;;;5.35;;
38465;SDS011;24244;51.950;5.902;2024-02-21T03:15:36;16.40;;;7.30;;
38465;SDS011;24244;51.950;5.902;2024-02-21T03:18:03;14.35;;;6.97;;
38465;SDS011;24244;51.950;5.902;2024-02-21T03:20:30;16.10;;;8.13;;
38465;SDS011;24244;51.950;5.902;2024-02-21T03:22:57;19.05;;;8.07;;
38465;SDS011;24244;51.950;5.902;2024-02-21T03:25:24;17.40;;;6.20;;
38465;SDS011;24244;51.950;5.902;2024-02-21T03:27:50;19.05;;;6.47;;
38465;SDS011;24244;51.950;5.902;2024-02-21T03:30:18;14.20;;;6.18;;
38465;SDS011;24244;51.950;5.902;2024-02-21T03:32:46;14.88;;;6.53;;
38465;SDS011;24244;51.950;5.902;2024-02-21T03:35:12;15.40;;;6.05;;
38465;SDS011;24244;51.950;5.902;2024-02-21T03:37:39;11.68;;;5.32;;
38465;SDS011;24244;51.950;5.902;2024-02-21T03:40:07;14.40;;;6.47;;
38465;SDS011;24244;51.950;5.902;2024-02-21T03:42:35;18.42;;;6.80;;
38465;SDS011;24244;51.950;5.902;2024-02-21T03:45:01;10.65;;;5.97;;
38465;SDS011;24244;51.950;5.902;2024-02-21T03:47:28;13.07;;;6.15;;
38465;SDS011;24244;51.950;5.902;2024-02-21T03:49:56;11.68;;;5.63;;
38465;SDS011;24244;51.950;5.902;2024-02-21T03:52:24;16.67;;;7.10;;
38465;SDS011;24244;51.950;5.902;2024-02-21T03:54:51;14.77;;;6.35;;
38465;SDS011;24244;51.950;5.902;2024-02-21T03:57:18;12.73;;;6.57;;
38465;SDS011;24244;51.950;5.902;2024-02-21T03:59:45;13.48;;;6.40;;
38465;SDS011;24244;51.950;5.902;2024-02-21T04:02:12;12.27;;;5.57;;
38465;SDS011;24244;51.950;5.902;2024-02-21T04:04:42;13.02;;;5.07;;
38465;SDS011;24244;51.950;5.902;2024-02-21T04:07:11;14.77;;;5.75;;
38465;SDS011;24244;51.950;5.902;2024-02-21T04:09:37;12.60;;;4.80;;
38465;SDS011;24244;51.950;5.902;2024-02-21T04:12:04;14.90;;;5.20;;
38465;SDS011;24244;51.950;5.902;2024-02-21T04:14:32;11.25;;;4.72;;
38465;SDS011;24244;51.950;5.902;2024-02-21T04:16:58;12.32;;;5.25;;
38465;SDS011;24244;51.950;5.902;2024-02-21T04:19:25;11.73;;;4.72;;
38465;SDS011;24244;51.950;5.902;2024-02-21T04:21:52;10.70;;;4.70;;
38465;SDS011;24244;51.950;5.902;2024-02-21T04:24:20;10.07;;;5.10;;
38465;SDS011;24244;51.950;5.902;2024-02-21T04:26:47;10.27;;;4.75;;
38465;SDS011;24244;51.950;5.902;2024-02-21T04:29:14;10.93;;;4.72;;
38465;SDS011;24244;51.950;5.902;2024-02-21T04:31:40;9.30;;;4.95;;
38465;SDS011;24244;51.950;5.902;2024-02-21T04:34:07;8.65;;;4.30;;
38465;SDS011;24244;51.950;5.902;2024-02-21T04:36:34;13.27;;;4.63;;
38465;SDS011;24244;51.950;5.902;2024-02-21T04:39:01;11.57;;;4.82;;
38465;SDS011;24244;51.950;5.902;2024-02-21T04:41:29;7.82;;;3.63;;
38465;SDS011;24244;51.950;5.902;2024-02-21T04:43:56;10.43;;;4.05;;
38465;SDS011;24244;51.950;5.902;2024-02-21T04:46:23;12.68;;;5.35;;
38465;SDS011;24244;51.950;5.902;2024-02-21T04:48:49;10.07;;;4.60;;
38465;SDS011;24244;51.950;5.902;2024-02-21T04:51:16;13.10;;;4.97;;
38465;SDS011;24244;51.950;5.902;2024-02-21T04:53:43;9.55;;;4.10;;
38465;SDS011;24244;51.950;5.902;2024-02-21T04:56:10;10.60;;;4.93;;
38465;SDS011;24244;51.950;5.902;2024-02-21T04:58:39;8.40;;;4.68;;
38465;SDS011;24244;51.950;5.902;2024-02-21T05:01:06;10.15;;;4.05;;
38465;SDS011;24244;51.950;5.902;2024-02-21T05:03:34;13.50;;;4.97;;
38465;SDS011;24244;51.950;5.902;2024-02-21T05:06:01;13.30;;;5.28;;
38465;SDS011;24244;51.950;5.902;2024-02-21T05:08:27;11.85;;;5.72;;
38465;SDS011;24244;51.950;5.902;2024-02-21T05:10:54;14.68;;;5.88;;
38465;SDS011;24244;51.950;5.902;2024-02-21T05:13:21;11.73;;;4.72;;
38465;SDS011;24244;51.950;5.902;2024-02-21T05:15:49;8.85;;;4.95;;
38465;SDS011;24244;51.950;5.902;2024-02-21T05:18:16;8.30;;;4.72;;
38465;SDS011;24244;51.950;5.902;2024-02-21T05:20:43;12.63;;;5.30;;
38465;SDS011;24244;51.950;5.902;2024-02-21T05:23:10;10.70;;;6.05;;
38465;SDS011;24244;51.950;5.902;2024-02-21T05:25:37;11.50;;;5.80;;
38465;SDS011;24244;51.950;5.902;2024-02-21T05:28:04;13.25;;;6.40;;
38465;SDS011;24244;51.950;5.902;2024-02-21T05:30:32;13.88;;;6.13;;
38465;SDS011;24244;51.950;5.902;2024-02-21T05:33:03;12.52;;;6.40;;
38465;SDS011;24244;51.950;5.902;2024-02-21T05:35:31;14.07;;;6.32;;
38465;SDS011;24244;51.950;5.902;2024-02-21T05:37:58;10.95;;;5.78;;
38465;SDS011;24244;51.950;5.902;2024-02-21T05:40:26;13.73;;;6.22;;
38465;SDS011;24244;51.950;5.902;2024-02-21T05:42:52;14.60;;;6.57;;
38465;SDS011;24244;51.950;5.902;2024-02-21T05:45:19;15.68;;;6.60;;
38465;SDS011;24244;51.950;5.902;2024-02-21T05:47:46;12.90;;;5.32;;
38465;SDS011;24244;51.950;5.902;2024-02-21T05:50:14;12.95;;;6.45;;
38465;SDS011;24244;51.950;5.902;2024-02-21T05:52:41;14.48;;;6.78;;
38465;SDS011;24244;51.950;5.902;2024-02-21T05:55:08;10.25;;;5.55;;
38465;SDS011;24244;51.950;5.902;2024-02-21T05:57:35;15.82;;;6.25;;
38465;SDS011;24244;51.950;5.902;2024-02-21T06:00:05;14.38;;;5.53;;
38465;SDS011;24244;51.950;5.902;2024-02-21T06:02:33;13.93;;;5.55;;
38465;SDS011;24244;51.950;5.902;2024-02-21T06:04:59;13.05;;;6.25;;
38465;SDS011;24244;51.950;5.902;2024-02-21T06:07:28;13.93;;;6.30;;
38465;SDS011;24244;51.950;5.902;2024-02-21T06:09:55;11.10;;;5.47;;
38465;SDS011;24244;51.950;5.902;2024-02-21T06:12:21;15.25;;;6.22;;
38465;SDS011;24244;51.950;5.902;2024-02-21T06:14:48;10.90;;;5.95;;
38465;SDS011;24244;51.950;5.902;2024-02-21T06:17:15;13.85;;;6.35;;
38465;SDS011;24244;51.950;5.902;2024-02-21T06:19:42;13.32;;;5.20;;
38465;SDS011;24244;51.950;5.902;2024-02-21T06:22:10;12.38;;;5.88;;
38465;SDS011;24244;51.950;5.902;2024-02-21T06:24:38;14.52;;;5.82;;
38465;SDS011;24244;51.950;5.902;2024-02-21T06:27:05;15.23;;;6.15;;
38465;SDS011;24244;51.950;5.902;2024-02-21T06:29:36;12.38;;;5.20;;
38465;SDS011;24244;51.950;5.902;2024-02-21T06:32:03;17.65;;;6.05;;
38465;SDS011;24244;51.950;5.902;2024-02-21T06:34:31;10.65;;;5.60;;
38465;SDS011;24244;51.950;5.902;2024-02-21T06:37:00;10.27;;;5.07;;
38465;SDS011;24244;51.950;5.902;2024-02-21T06:39:27;15.15;;;6.18;;
38465;SDS011;24244;51.950;5.902;2024-02-21T06:41:57;12.95;;;5.72;;
38465;SDS011;24244;51.950;5.902;2024-02-21T06:44:28;11.02;;;5.50;;
38465;SDS011;24244;51.950;5.902;2024-02-21T06:46:55;12.48;;;5.70;;
38465;SDS011;24244;51.950;5.902;2024-02-21T06:49:22;11.65;;;5.30;;
38465;SDS011;24244;51.950;5.902;2024-02-21T06:51:49;13.30;;;4.82;;
38465;SDS011;24244;51.950;5.902;2024-02-21T06:54:16;9.65;;;4.45;;
38465;SDS011;24244;51.950;5.902;2024-02-21T06:56:43;11.27;;;5.07;;
38465;SDS011;24244;51.950;5.902;2024-02-21T06:59:11;11.07;;;4.43;;
38465;SDS011;24244;51.950;5.902;2024-02-21T07:01:44;13.02;;;5.60;;
38465;SDS011;24244;51.950;5.902;2024-02-21T07:04:11;12.30;;;4.75;;
38465;SDS011;24244;51.950;5.902;2024-02-21T07:06:38;10.27;;;5.35;;
38465;SDS011;24244;51.950;5.902;2024-02-21T07:09:05;13.82;;;4.90;;
38465;SDS011;24244;51.950;5.902;2024-02-21T07:11:32;14.35;;;6.53;;
38465;SDS011;24244;51.950;5.902;2024-02-21T07:13:59;13.65;;;4.65;;
38465;SDS011;24244;51.950;5.902;2024-02-21T07:16:27;13.23;;;5.43;;
38465;SDS011;24244;51.950;5.902;2024-02-21T07:18:55;16.38;;;6.70;;
38465;SDS011;24244;51.950;5.902;2024-02-21T07:21:21;16.48;;;5.22;;
38465;SDS011;24244;51.950;5.902;2024-02-21T07:23:48;13.18;;;5.80;;
38465;SDS011;24244;51.950;5.902;2024-02-21T07:26:15;11.07;;;4.80;;
38465;SDS011;24244;51.950;5.902;2024-02-21T07:28:42;11.00;;;4.40;;
38465;SDS011;24244;51.950;5.902;2024-02-21T07:31:09;15.90;;;6.32;;
38465;SDS011;24244;51.950;5.902;2024-02-21T07:33:37;13.70;;;5.70;;
38465;SDS011;24244;51.950;5.902;2024-02-21T07:36:05;14.02;;;5.75;;
38465;SDS011;24244;51.950;5.902;2024-02-21T07:38:33;10.68;;;4.80;;
38465;SDS011;24244;51.950;5.902;2024-02-21T07:41:00;16.38;;;6.15;;
38465;SDS011;24244;51.950;5.902;2024-02-21T07:43:27;13.85;;;4.95;;
38465;SDS011;24244;51.950;5.902;2024-02-21T07:45:53;10.52;;;5.00;;
38465;SDS011;24244;51.950;5.902;2024-02-21T07:48:20;15.13;;;5.63;;
38465;SDS011;24244;51.950;5.902;2024-02-21T07:50:52;9.48;;;4.47;;
38465;SDS011;24244;51.950;5.902;2024-02-21T07:53:19;11.60;;;4.82;;
38465;SDS011;24244;51.950;5.902;2024-02-21T07:55:46;12.70;;;5.10;;
38465;SDS011;24244;51.950;5.902;2024-02-21T07:58:13;12.95;;;5.93;;
38465;SDS011;24244;51.950;5.902;2024-02-21T08:00:40;11.50;;;4.82;;
38465;SDS011;24244;51.950;5.902;2024-02-21T08:03:06;13.93;;;5.80;;
38465;SDS011;24244;51.950;5.902;2024-02-21T08:05:34;12.27;;;6.28;;
38465;SDS011;24244;51.950;5.902;2024-02-21T08:08:02;14.88;;;5.55;;
38465;SDS011;24244;51.950;5.902;2024-02-21T08:10:30;11.25;;;5.93;;
38465;SDS011;24244;51.950;5.902;2024-02-21T08:12:57;12.80;;;5.30;;
38465;SDS011;24244;51.950;5.902;2024-02-21T08:15:23;15.70;;;5.13;;
38465;SDS011;24244;51.950;5.902;2024-02-21T08:17:54;10.20;;;4.32;;
38465;SDS011;24244;51.950;5.902;2024-02-21T08:20:25;14.43;;;5.30;;
38465;SDS011;24244;51.950;5.902;2024-02-21T08:22:52;14.55;;;6.60;;
38465;SDS011;24244;51.950;5.902;2024-02-21T08:25:21;13.68;;;5.13;;
38465;SDS011;24244;51.950;5.902;2024-02-21T08:27:47;15.15;;;5.40;;
38465;SDS011;24244;51.950;5.902;2024-02-21T08:30:15;12.57;;;5.07;;
38465;SDS011;24244;51.950;5.902;2024-02-21T08:32:42;14.65;;;5.72;;
38465;SDS011;24244;51.950;5.902;2024-02-21T08:35:09;13.50;;;5.80;;
38465;SDS011;24244;51.950;5.902;2024-02-21T08:37:36;12.55;;;5.90;;
38465;SDS011;24244;51.950;5.902;2024-02-21T08:40:03;12.48;;;6.50;;
38465;SDS011;24244;51.950;5.902;2024-02-21T08:45:05;13.27;;;5.38;;
38465;SDS011;24244;51.950;5.902;2024-02-21T08:47:32;10.35;;;5.72;;
38465;SDS011;24244;51.950;5.902;2024-02-21T08:49:59;10.18;;;5.38;;
38465;SDS011;24244;51.950;5.902;2024-02-21T08:52:40;12.05;;;5.13;;
38465;SDS011;24244;51.950;5.902;2024-02-21T08:55:08;10.40;;;5.28;;
38465;SDS011;24244;51.950;5.902;2024-02-21T08:57:36;12.73;;;6.20;;
38465;SDS011;24244;51.950;5.902;2024-02-21T09:00:03;11.40;;;5.93;;
38465;SDS011;24244;51.950;5.902;2024-02-21T09:02:36;10.95;;;5.50;;
38465;SDS011;24244;51.950;5.902;2024-02-21T09:05:04;11.02;;;4.80;;
38465;SDS011;24244;51.950;5.902;2024-02-21T09:07:31;12.60;;;5.78;;
38465;SDS011;24244;51.950;5.902;2024-02-21T09:09:58;12.57;;;5.50;;
38465;SDS011;24244;51.950;5.902;2024-02-21T09:12:25;16.38;;;7.13;;
38465;SDS011;24244;51.950;5.902;2024-02-21T09:14:53;12.25;;;5.75;;
38465;SDS011;24244;51.950;5.902;2024-02-21T09:17:20;11.88;;;4.82;;
38465;SDS011;24244;51.950;5.902;2024-02-21T09:19:47;15.00;;;5.75;;
38465;SDS011;24244;51.950;5.902;2024-02-21T09:22:16;13.32;;;4.97;;
38465;SDS011;24244;51.950;5.902;2024-02-21T09:24:43;10.68;;;5.97;;
38465;SDS011;24244;51.950;5.902;2024-02-21T09:27:10;8.95;;;5.20;;
38465;SDS011;24244;51.950;5.902;2024-02-21T09:29:37;13.75;;;5.00;;
38465;SDS011;24244;51.950;5.902;2024-02-21T09:32:05;10.20;;;6.38;;
38465;SDS011;24244;51.950;5.902;2024-02-21T09:34:32;14.60;;;5.22;;
38465;SDS011;24244;51.950;5.902;2024-02-21T09:36:59;9.55;;;4.78;;
38465;SDS011;24244;51.950;5.902;2024-02-21T09:39:26;9.55;;;5.30;;
38465;SDS011;24244;51.950;5.902;2024-02-21T09:41:53;13.70;;;4.43;;
38465;SDS011;24244;51.950;5.902;2024-02-21T09:44:26;11.00;;;5.30;;
38465;SDS011;24244;51.950;5.902;2024-02-21T09:47:02;9.70;;;4.72;;
38465;SDS011;24244;51.950;5.902;2024-02-21T09:49:34;10.00;;;4.35;;
38465;SDS011;24244;51.950;5.902;2024-02-21T09:52:04;8.90;;;5.03;;
38465;SDS011;24244;51.950;5.902;2024-02-21T09:54:32;12.02;;;5.32;;
38465;SDS011;24244;51.950;5.902;2024-02-21T09:57:00;11.95;;;5.15;;
38465;SDS011;24244;51.950;5.902;2024-02-21T09:59:27;11.75;;;5.05;;
38465;SDS011;24244;51.950;5.902;2024-02-21T10:01:54;9.25;;;4.15;;
38465;SDS011;24244;51.950;5.902;2024-02-21T10:04:21;9.93;;;5.60;;
38465;SDS011;24244;51.950;5.902;2024-02-21T10:06:50;10.30;;;4.18;;
38465;SDS011;24244;51.950;5.902;2024-02-21T10:09:20;9.13;;;4.30;;
38465;SDS011;24244;51.950;5.902;2024-02-21T10:11:49;8.55;;;4.57;;
38465;SDS011;24244;51.950;5.902;2024-02-21T10:14:17;9.45;;;5.00;;
38465;SDS011;24244;51.950;5.902;2024-02-21T10:16:45;10.85;;;5.57;;
38465;SDS011;24244;51.950;5.902;2024-02-21T10:19:16;10.30;;;4.53;;
38465;SDS011;24244;51.950;5.902;2024-02-21T10:21:43;9.98;;;4.60;;
38465;SDS011;24244;51.950;5.902;2024-02-21T10:24:13;8.57;;;4.22;;
38465;SDS011;24244;51.950;5.902;2024-02-21T10:26:39;11.45;;;5.00;;
38465;SDS011;24244;51.950;5.902;2024-02-21T10:29:06;6.80;;;3.80;;
38465;SDS011;24244;51.950;5.902;2024-02-21T10:31:33;8.50;;;3.90;;
38465;SDS011;24244;51.950;5.902;2024-02-21T10:34:00;7.80;;;4.03;;
38465;SDS011;24244;51.950;5.902;2024-02-21T10:36:29;9.48;;;3.78;;
38465;SDS011;24244;51.950;5.902;2024-02-21T10:38:56;6.93;;;3.20;;
38465;SDS011;24244;51.950;5.902;2024-02-21T10:41:24;9.82;;;3.78;;
38465;SDS011;24244;51.950;5.902;2024-02-21T10:43:53;7.72;;;3.13;;
38465;SDS011;24244;51.950;5.902;2024-02-21T10:46:23;8.45;;;3.53;;
38465;SDS011;24244;51.950;5.902;2024-02-21T10:48:57;8.65;;;4.00;;
38465;SDS011;24244;51.950;5.902;2024-02-21T10:51:32;6.90;;;3.40;;
38465;SDS011;24244;51.950;5.902;2024-02-21T10:54:04;6.53;;;3.08;;
38465;SDS011;24244;51.950;5.902;2024-02-21T10:56:41;10.35;;;4.40;;
38465;SDS011;24244;51.950;5.902;2024-02-21T10:59:08;9.35;;;4.35;;
38465;SDS011;24244;51.950;5.902;2024-02-21T11:01:35;6.90;;;3.83;;
38465;SDS011;24244;51.950;5.902;2024-02-21T11:04:03;9.82;;;4.82;;
38465;SDS011;24244;51.950;5.902;2024-02-21T11:06:31;7.95;;;4.65;;
38465;SDS011;24244;51.950;5.902;2024-02-21T11:09:01;7.32;;;3.83;;
38465;SDS011;24244;51.950;5.902;2024-02-21T11:11:29;10.45;;;4.65;;
38465;SDS011;24244;51.950;5.902;2024-02-21T11:14:07;9.25;;;3.90;;
38465;SDS011;24244;51.950;5.902;2024-02-21T11:16:35;13.68;;;4.70;;
38465;SDS011;24244;51.950;5.902;2024-02-21T11:19:04;8.50;;;5.03;;
38465;SDS011;24244;51.950;5.902;2024-02-21T11:21:37;11.38;;;4.88;;
38465;SDS011;24244;51.950;5.902;2024-02-21T11:24:04;8.50;;;4.13;;
38465;SDS011;24244;51.950;5.902;2024-02-21T11:26:31;12.80;;;5.13;;
38465;SDS011;24244;51.950;5.902;2024-02-21T11:28:59;9.35;;;3.90;;
38465;SDS011;24244;51.950;5.902;2024-02-21T11:31:37;10.13;;;4.00;;
38465;SDS011;24244;51.950;5.902;2024-02-21T11:34:08;13.63;;;4.20;;
38465;SDS011;24244;51.950;5.902;2024-02-21T11:36:35;9.10;;;4.20;;
38465;SDS011;24244;51.950;5.902;2024-02-21T11:39:03;9.35;;;4.60;;
38465;SDS011;24244;51.950;5.902;2024-02-21T11:41:31;7.38;;;3.58;;
38465;SDS011;24244;51.950;5.902;2024-02-21T11:43:58;10.75;;;3.88;;
38465;SDS011;24244;51.950;5.902;2024-02-21T11:46:25;8.70;;;4.70;;
38465;SDS011;24244;51.950;5.902;2024-02-21T11:48:53;11.27;;;4.53;;
38465;SDS011;24244;51.950;5.902;2024-02-21T11:51:21;10.50;;;4.35;;
38465;SDS011;24244;51.950;5.902;2024-02-21T11:53:51;9.25;;;4.35;;
38465;SDS011;24244;51.950;5.902;2024-02-21T11:56:27;11.18;;;4.40;;
38465;SDS011;24244;51.950;5.902;2024-02-21T11:58:53;11.43;;;5.43;;
38465;SDS011;24244;51.950;5.902;2024-02-21T12:01:20;10.07;;;4.85;;
38465;SDS011;24244;51.950;5.902;2024-02-21T12:03:47;7.95;;;4.53;;
38465;SDS011;24244;51.950;5.902;2024-02-21T12:06:17;7.57;;;4.65;;
38465;SDS011;24244;51.950;5.902;2024-02-21T12:08:46;7.07;;;3.80;;
38465;SDS011;24244;51.950;5.902;2024-02-21T12:11:17;9.20;;;3.83;;
38465;SDS011;24244;51.950;5.902;2024-02-21T12:13:46;9.52;;;4.20;;
38465;SDS011;24244;51.950;5.902;2024-02-21T12:16:15;10.18;;;4.03;;
38465;SDS011;24244;51.950;5.902;2024-02-21T12:18:44;10.93;;;4.50;;
38465;SDS011;24244;51.950;5.902;2024-02-21T12:21:11;6.88;;;3.42;;
38465;SDS011;24244;51.950;5.902;2024-02-21T12:23:39;9.57;;;5.00;;
38465;SDS011;24244;51.950;5.902;2024-02-21T12:26:06;6.93;;;3.95;;
38465;SDS011;24244;51.950;5.902;2024-02-21T12:28:34;8.85;;;3.58;;
38465;SDS011;24244;51.950;5.902;2024-02-21T12:31:01;6.32;;;3.20;;
38465;SDS011;24244;51.950;5.902;2024-02-21T12:33:30;8.60;;;4.10;;
38465;SDS011;24244;51.950;5.902;2024-02-21T12:35:57;8.63;;;4.47;;
38465;SDS011;24244;51.950;5.902;2024-02-21T12:38:24;8.23;;;4.00;;
38465;SDS011;24244;51.950;5.902;2024-02-21T12:40:52;9.40;;;3.97;;
38465;SDS011;24244;51.950;5.902;2024-02-21T12:43:19;9.90;;;6.25;;
38465;SDS011;24244;51.950;5.902;2024-02-21T12:45:46;11.00;;;4.28;;
38465;SDS011;24244;51.950;5.902;2024-02-21T12:48:13;10.43;;;4.25;;
38465;SDS011;24244;51.950;5.902;2024-02-21T12:50:40;8.85;;;3.33;;
38465;SDS011;24244;51.950;5.902;2024-02-21T12:53:14;8.07;;;4.15;;
38465;SDS011;24244;51.950;5.902;2024-02-21T12:55:52;9.23;;;4.68;;
38465;SDS011;24244;51.950;5.902;2024-02-21T12:58:19;7.22;;;4.05;;
38465;SDS011;24244;51.950;5.902;2024-02-21T13:00:48;7.60;;;3.75;;
38465;SDS011;24244;51.950;5.902;2024-02-21T13:03:15;7.90;;;3.80;;
38465;SDS011;24244;51.950;5.902;2024-02-21T13:05:41;5.32;;;2.90;;
38465;SDS011;24244;51.950;5.902;2024-02-21T13:08:08;9.10;;;3.53;;
38465;SDS011;24244;51.950;5.902;2024-02-21T13:10:36;8.43;;;3.92;;
38465;SDS011;24244;51.950;5.902;2024-02-21T13:13:04;7.72;;;3.35;;
38465;SDS011;24244;51.950;5.902;2024-02-21T13:15:31;9.75;;;4.00;;
38465;SDS011;24244;51.950;5.902;2024-02-21T13:17:57;9.00;;;3.75;;
38465;SDS011;24244;51.950;5.902;2024-02-21T13:20:25;9.93;;;4.03;;
38465;SDS011;24244;51.950;5.902;2024-02-21T13:22:52;7.93;;;3.65;;
38465;SDS011;24244;51.950;5.902;2024-02-21T13:25:19;7.22;;;4.40;;
38465;SDS011;24244;51.950;5.902;2024-02-21T13:27:47;10.00;;;4.05;;
38465;SDS011;24244;51.950;5.902;2024-02-21T13:30:16;8.13;;;3.92;;
38465;SDS011;24244;51.950;5.902;2024-02-21T13:32:44;7.85;;;3.97;;
38465;SDS011;24244;51.950;5.902;2024-02-21T13:35:13;8.82;;;3.50;;
38465;SDS011;24244;51.950;5.902;2024-02-21T13:37:41;7.45;;;4.05;;
38465;SDS011;24244;51.950;5.902;2024-02-21T13:40:08;7.85;;;3.60;;
38465;SDS011;24244;51.950;5.902;2024-02-21T13:42:36;7.65;;;4.05;;
38465;SDS011;24244;51.950;5.902;2024-02-21T13:45:03;10.13;;;3.80;;
38465;SDS011;24244;51.950;5.902;2024-02-21T13:47:33;7.03;;;3.95;;
38465;SDS011;24244;51.950;5.902;2024-02-21T13:50:00;9.48;;;3.33;;
38465;SDS011;24244;51.950;5.902;2024-02-21T13:52:27;5.85;;;3.53;;
38465;SDS011;24244;51.950;5.902;2024-02-21T13:54:54;7.07;;;4.13;;
38465;SDS011;24244;51.950;5.902;2024-02-21T13:57:21;7.65;;;3.58;;
38465;SDS011;24244;51.950;5.902;2024-02-21T13:59:47;5.55;;;3.85;;
38465;SDS011;24244;51.950;5.902;2024-02-21T14:02:14;8.55;;;3.67;;
38465;SDS011;24244;51.950;5.902;2024-02-21T14:04:42;11.18;;;3.72;;
38465;SDS011;24244;51.950;5.902;2024-02-21T14:07:09;7.43;;;3.53;;
38465;SDS011;24244;51.950;5.902;2024-02-21T14:09:36;10.77;;;3.83;;
38465;SDS011;24244;51.950;5.902;2024-02-21T14:12:03;8.25;;;3.30;;
38465;SDS011;24244;51.950;5.902;2024-02-21T14:14:34;9.70;;;4.32;;
38465;SDS011;24244;51.950;5.902;2024-02-21T14:17:05;6.70;;;3.53;;
38465;SDS011;24244;51.950;5.902;2024-02-21T14:19:32;8.55;;;3.88;;
38465;SDS011;24244;51.950;5.902;2024-02-21T14:22:00;6.47;;;3.22;;
38465;SDS011;24244;51.950;5.902;2024-02-21T14:24:28;7.30;;;2.65;;
38465;SDS011;24244;51.950;5.902;2024-02-21T14:26:55;6.53;;;2.95;;
38465;SDS011;24244;51.950;5.902;2024-02-21T14:29:22;5.65;;;2.65;;
38465;SDS011;24244;51.950;5.902;2024-02-21T14:31:48;5.60;;;3.03;;
38465;SDS011;24244;51.950;5.902;2024-02-21T14:34:15;4.40;;;2.70;;
38465;SDS011;24244;51.950;5.902;2024-02-21T14:36:43;5.00;;;2.10;;
38465;SDS011;24244;51.950;5.902;2024-02-21T14:39:11;5.63;;;2.85;;
38465;SDS011;24244;51.950;5.902;2024-02-21T14:41:38;4.72;;;2.05;;
38465;SDS011;24244;51.950;5.902;2024-02-21T14:44:06;5.30;;;2.45;;